Time;durP1;ratioP1;P1;durP2;ratioP2;P2;SDS_P1;SDS_P2;PMS_P1;PMS_P2;Temp;Humidity;BMP_temperature;BMP_pressure;BME280_temperature;BME280_humidity;BME280_pressure;Samples;Min_cycle;Max_cycle;Signal;HPM_P1;HPM_P2
2023/08/30 00:00:56;;;;;;;0.40;0.40;;;;;14.50;95614.00;;;;8343097;28;20196;-69
2023/08/30 00:05:04;;;;;;;0.38;0.38;;;;;14.50;95617.00;;;;8339370;28;20216;-69
2023/08/30 00:09:08;;;;;;;0.40;0.40;;;;;14.40;95612.00;;;;8344324;28;20243;-69
2023/08/30 00:13:13;;;;;;;0.40;0.40;;;;;14.40;95602.00;;;;8349026;28;20251;-69
2023/08/30 00:17:19;;;;;;;0.40;0.40;;;;;14.40;95602.00;;;;8340728;28;20204;-68
2023/08/30 00:21:23;;;;;;;0.30;0.30;;;;;14.40;95621.00;;;;8348385;28;20267;-69
2023/08/30 00:25:28;;;;;;;0.30;0.30;;;;;14.40;95621.00;;;;8341148;28;20316;-68
2023/08/30 00:29:35;;;;;;;0.30;0.30;;;;;14.40;95619.00;;;;8347803;28;20197;-69
2023/08/30 00:33:41;;;;;;;0.40;0.40;;;;;14.40;95627.00;;;;8344913;28;20879;-68
2023/08/30 00:37:44;;;;;;;0.40;0.40;;;;;14.40;95624.00;;;;8341077;28;20618;-69
2023/08/30 00:41:48;;;;;;;0.40;0.40;;;;;14.30;95629.00;;;;8340302;28;20287;-69
2023/08/30 00:45:53;;;;;;;0.40;0.40;;;;;14.40;95627.00;;;;8343477;28;20232;-69
2023/08/30 00:50:03;;;;;;;0.30;0.30;;;;;14.40;95626.00;;;;8340256;28;20201;-69
2023/08/30 00:54:10;;;;;;;0.40;0.40;;;;;14.40;95626.00;;;;8338036;28;20252;-69
2023/08/30 00:58:19;;;;;;;0.40;0.40;;;;;14.40;95634.00;;;;8347276;28;20752;-69
2023/08/30 01:02:27;;;;;;;0.30;0.30;;;;;14.30;95623.00;;;;8334574;28;20235;-69
2023/08/30 01:06:32;;;;;;;0.40;0.40;;;;;14.30;95627.00;;;;8343175;28;20197;-68
2023/08/30 01:10:45;;;;;;;0.40;0.40;;;;;14.30;95634.00;;;;8347049;28;20283;-69
2023/08/30 01:14:58;;;;;;;0.40;0.40;;;;;14.30;95630.00;;;;8338001;28;20224;-69
2023/08/30 01:19:13;;;;;;;0.40;0.40;;;;;14.30;95633.00;;;;8334767;28;20230;-69
2023/08/30 01:23:29;;;;;;;0.40;0.40;;;;;14.30;95634.00;;;;8344416;28;20210;-69
2023/08/30 01:27:39;;;;;;;0.60;0.60;;;;;14.30;95639.00;;;;8343693;28;20200;-69
2023/08/30 01:31:44;;;;;;;0.40;0.40;;;;;14.20;95633.00;;;;8345634;28;20311;-68
2023/08/30 01:35:54;;;;;;;0.40;0.40;;;;;14.20;95634.00;;;;8337963;28;20283;-69
2023/08/30 01:40:01;;;;;;;0.40;0.40;;;;;14.20;95628.00;;;;8345477;28;20225;-69
2023/08/30 01:44:07;;;;;;;0.30;0.30;;;;;14.20;95625.00;;;;8345432;28;20531;-70
2023/08/30 01:48:14;;;;;;;0.40;0.40;;;;;14.20;95629.00;;;;8339013;28;20255;-69
2023/08/30 01:52:18;;;;;;;0.35;0.35;;;;;14.10;95631.00;;;;8342114;28;20255;-70
2023/08/30 01:56:24;;;;;;;0.40;0.40;;;;;14.10;95637.00;;;;8342752;28;20637;-70
2023/08/30 02:00:34;;;;;;;0.40;0.40;;;;;14.10;95634.00;;;;8339786;28;20221;-69
2023/08/30 02:04:38;;;;;;;0.50;0.50;;;;;14.10;95634.00;;;;8339860;28;20232;-70
2023/08/30 02:08:48;;;;;;;0.40;0.40;;;;;14.10;95630.00;;;;8340543;28;20254;-68
2023/08/30 02:12:54;;;;;;;0.40;0.40;;;;;14.10;95622.00;;;;8341107;28;20272;-68
2023/08/30 02:17:05;;;;;;;0.40;0.40;;;;;14.10;95626.00;;;;8339677;28;20193;-69
2023/08/30 02:21:11;;;;;;;0.40;0.40;;;;;14.10;95630.00;;;;8342022;28;20209;-68
2023/08/30 02:25:16;;;;;;;0.30;0.30;;;;;14.10;95627.00;;;;8334073;28;20579;-69
2023/08/30 02:29:25;;;;;;;0.40;0.40;;;;;14.10;95628.00;;;;8342962;28;20232;-70
2023/08/30 02:33:31;;;;;;;0.40;0.40;;;;;14.10;95625.00;;;;8342790;28;20229;-69
2023/08/30 02:37:34;;;;;;;0.38;0.38;;;;;14.10;95629.00;;;;8338124;28;20604;-69
2023/08/30 02:41:38;;;;;;;0.40;0.40;;;;;14.20;95632.00;;;;8338673;28;20305;-69
2023/08/30 02:45:41;;;;;;;0.40;0.40;;;;;14.20;95631.00;;;;8338044;28;20206;-69
2023/08/30 02:49:50;;;;;;;0.40;0.40;;;;;14.10;95623.00;;;;8344390;28;20685;-69
2023/08/30 02:53:58;;;;;;;0.40;0.40;;;;;14.10;95634.00;;;;8342139;28;20225;-69
2023/08/30 02:58:08;;;;;;;0.40;0.40;;;;;14.10;95636.00;;;;8339840;28;20200;-69
2023/08/30 03:02:12;;;;;;;0.40;0.40;;;;;14.00;95623.00;;;;8368040;22;20228;-69
2023/08/30 03:06:17;;;;;;;0.40;0.40;;;;;14.00;95618.00;;;;8332691;28;20207;-70
2023/08/30 03:10:20;;;;;;;0.40;0.40;;;;;14.00;95622.00;;;;8336231;28;20208;-69
2023/08/30 03:14:25;;;;;;;0.40;0.40;;;;;13.90;95620.00;;;;8337794;28;20228;-69
2023/08/30 03:18:28;;;;;;;0.40;0.40;;;;;13.90;95624.00;;;;8333890;28;20287;-69
2023/08/30 03:22:33;;;;;;;0.40;0.40;;;;;13.90;95619.00;;;;8342426;28;20197;-70
2023/08/30 03:26:45;;;;;;;0.38;0.38;;;;;13.90;95621.00;;;;8334066;28;20202;-69
2023/08/30 03:30:51;;;;;;;0.40;0.40;;;;;13.80;95620.00;;;;8337283;28;20283;-69
2023/08/30 03:34:56;;;;;;;0.40;0.40;;;;;13.80;95620.00;;;;8341996;28;20755;-69
2023/08/30 03:39:01;;;;;;;0.40;0.40;;;;;13.80;95626.00;;;;8338273;28;20292;-70
2023/08/30 03:43:07;;;;;;;0.40;0.40;;;;;13.80;95625.00;;;;8337743;28;20288;-69
2023/08/30 03:47:10;;;;;;;0.35;0.35;;;;;13.80;95629.00;;;;8342095;28;20286;-69
2023/08/30 03:51:13;;;;;;;0.40;0.40;;;;;13.70;95623.00;;;;8343182;28;20194;-70
2023/08/30 03:55:22;;;;;;;0.50;0.50;;;;;13.70;95626.00;;;;8344339;28;20620;-70
2023/08/30 03:59:27;;;;;;;0.50;0.50;;;;;13.70;95638.00;;;;8339658;28;20908;-70
2023/08/30 04:03:30;;;;;;;0.40;0.40;;;;;13.70;95625.00;;;;8313505;28;20693;-70
2023/08/30 04:07:36;;;;;;;0.40;0.40;;;;;13.70;95636.00;;;;8304209;28;20204;-70
2023/08/30 04:11:44;;;;;;;0.40;0.40;;;;;13.70;95632.00;;;;8313535;28;20611;-70
2023/08/30 04:15:47;;;;;;;0.60;0.60;;;;;13.80;95636.00;;;;8312802;28;20344;-69
2023/08/30 04:19:52;;;;;;;0.40;0.40;;;;;13.80;95639.00;;;;8314923;28;20950;-69
2023/08/30 04:23:58;;;;;;;0.40;0.40;;;;;13.80;95631.00;;;;8308532;28;20201;-69
2023/08/30 04:28:03;;;;;;;0.40;0.40;;;;;13.80;95636.00;;;;8306804;28;20734;-69
2023/08/30 04:32:09;;;;;;;0.40;0.40;;;;;13.80;95635.00;;;;8315042;28;20228;-69
2023/08/30 04:36:14;;;;;;;0.40;0.40;;;;;13.80;95635.00;;;;8309341;28;20232;-69
2023/08/30 04:40:18;;;;;;;0.40;0.40;;;;;13.80;95640.00;;;;8314558;28;20205;-68
2023/08/30 04:44:24;;;;;;;0.40;0.40;;;;;13.80;95645.00;;;;8312377;28;20512;-69
2023/08/30 04:48:28;;;;;;;0.40;0.40;;;;;13.80;95641.00;;;;8311158;28;20240;-69
2023/08/30 04:52:31;;;;;;;0.50;0.50;;;;;13.80;95642.00;;;;8310090;28;20205;-70
2023/08/30 04:56:34;;;;;;;0.40;0.40;;;;;13.80;95637.00;;;;8307275;28;20393;-69
2023/08/30 05:00:39;;;;;;;0.40;0.40;;;;;13.80;95640.00;;;;8303378;28;20229;-70
2023/08/30 05:04:43;;;;;;;0.40;0.40;;;;;13.80;95643.00;;;;8298737;28;20202;-70
2023/08/30 05:08:48;;;;;;;0.40;0.40;;;;;13.80;95644.00;;;;8304034;28;20208;-69
2023/08/30 05:12:52;;;;;;;0.30;0.30;;;;;13.90;95644.00;;;;8300325;28;20197;-69
2023/08/30 05:16:59;;;;;;;0.40;0.40;;;;;13.90;95640.00;;;;8299344;28;20213;-70
2023/08/30 05:21:03;;;;;;;0.40;0.40;;;;;14.00;95630.00;;;;8301980;28;20232;-69
2023/08/30 05:25:09;;;;;;;0.40;0.40;;;;;14.10;95642.00;;;;8302495;28;20536;-70
2023/08/30 05:29:13;;;;;;;0.40;0.40;;;;;14.20;95638.00;;;;8304515;28;20205;-69
2023/08/30 05:33:18;;;;;;;0.60;0.60;;;;;14.30;95639.00;;;;8301956;28;20225;-70
2023/08/30 05:37:26;;;;;;;0.40;0.40;;;;;14.40;95636.00;;;;8309453;28;20200;-71
2023/08/30 05:41:29;;;;;;;0.60;0.60;;;;;14.50;95644.00;;;;8311349;28;20288;-70
2023/08/30 05:45:34;;;;;;;0.40;0.40;;;;;14.60;95632.00;;;;8312393;28;20309;-70
2023/08/30 05:49:42;;;;;;;0.40;0.40;;;;;14.80;95641.00;;;;8314876;28;20228;-69
2023/08/30 05:53:45;;;;;;;0.40;0.40;;;;;14.90;95648.00;;;;8310032;28;20229;-69
2023/08/30 05:57:50;;;;;;;0.40;0.40;;;;;15.00;95639.00;;;;8309504;28;20881;-70
2023/08/30 06:01:53;;;;;;;0.40;0.40;;;;;15.00;95640.00;;;;8309060;28;20311;-69
2023/08/30 06:05:58;;;;;;;0.40;0.40;;;;;15.00;95643.00;;;;8309769;28;20707;-69
2023/08/30 06:10:04;;;;;;;0.52;0.52;;;;;15.00;95645.00;;;;8307200;28;20247;-68
2023/08/30 06:14:10;;;;;;;0.40;0.40;;;;;15.10;95641.00;;;;8310411;28;20732;-69
2023/08/30 06:18:19;;;;;;;0.50;0.50;;;;;15.20;95646.00;;;;8311225;28;20678;-70
2023/08/30 06:22:25;;;;;;;0.40;0.40;;;;;15.30;95651.00;;;;8310354;28;20748;-69
2023/08/30 06:26:28;;;;;;;0.50;0.50;;;;;15.40;95655.00;;;;8301180;28;20196;-69
2023/08/30 06:30:32;;;;;;;0.40;0.40;;;;;15.60;95649.00;;;;8300815;28;21923;-68
2023/08/30 06:34:37;;;;;;;0.40;0.40;;;;;15.70;95650.00;;;;8313798;28;20241;-68
2023/08/30 06:38:42;;;;;;;0.45;0.45;;;;;15.80;95643.00;;;;8301662;28;20296;-68
2023/08/30 06:42:46;;;;;;;0.47;0.47;;;;;15.90;95642.00;;;;8308249;28;20212;-68
2023/08/30 06:46:49;;;;;;;0.40;0.40;;;;;16.10;95640.00;;;;8303622;28;20886;-69
2023/08/30 06:50:53;;;;;;;0.40;0.40;;;;;16.20;95648.00;;;;8302533;28;20288;-68
2023/08/30 06:54:57;;;;;;;0.40;0.40;;;;;16.40;95645.00;;;;8300655;28;20221;-68
2023/08/30 06:59:02;;;;;;;0.60;0.60;;;;;16.50;95648.00;;;;8299174;28;20197;-68
2023/08/30 07:03:05;;;;;;;0.40;0.40;;;;;16.60;95650.00;;;;8302510;28;20241;-68
2023/08/30 07:07:13;;;;;;;0.50;0.50;;;;;17.00;95654.00;;;;8305197;28;20749;-68
2023/08/30 07:11:17;;;;;;;0.63;0.63;;;;;17.00;95649.00;;;;8308933;28;20316;-68
2023/08/30 07:15:43;;;;;;;0.55;0.55;;;;;17.40;95651.00;;;;8306081;28;20589;-68
2023/08/30 07:19:46;;;;;;;0.40;0.40;;;;;18.00;95645.00;;;;8307974;28;20285;-69
2023/08/30 07:23:49;;;;;;;0.30;0.30;;;;;18.40;95648.00;;;;8311584;28;20212;-68
2023/08/30 07:27:54;;;;;;;0.40;0.40;;;;;18.20;95646.00;;;;8315753;28;20229;-68
2023/08/30 07:31:58;;;;;;;0.45;0.45;;;;;18.20;95644.00;;;;8304997;28;20207;-67
2023/08/30 07:36:02;;;;;;;0.40;0.40;;;;;18.90;95647.00;;;;8306548;28;20233;-68
2023/08/30 07:40:07;;;;;;;0.40;0.40;;;;;19.00;95653.00;;;;8307451;28;20313;-68
2023/08/30 07:44:14;;;;;;;0.40;0.40;;;;;19.10;95658.00;;;;8303331;28;20199;-68
2023/08/30 07:48:17;;;;;;;0.40;0.40;;;;;19.30;95655.00;;;;8308153;28;20205;-69
2023/08/30 07:52:22;;;;;;;0.40;0.40;;;;;19.40;95646.00;;;;8309275;28;20204;-69
2023/08/30 07:56:51;;;;;;;0.65;0.65;;;;;20.60;95656.00;;;;8301696;28;20221;-69
2023/08/30 08:00:56;;;;;;;0.50;0.50;;;;;21.30;95655.00;;;;8304751;28;20217;-70
2023/08/30 08:05:05;;;;;;;9.13;6.55;;;;;21.40;95656.00;;;;8303470;28;20655;-69
2023/08/30 08:09:08;;;;;;;9.85;6.47;;;;;21.30;95656.00;;;;8307929;28;20241;-69
2023/08/30 08:13:13;;;;;;;8.63;7.55;;;;;21.50;95657.00;;;;8311583;28;20212;-69
2023/08/30 08:17:19;;;;;;;11.63;7.60;;;;;21.10;95652.00;;;;8300346;28;20327;-70
2023/08/30 08:21:24;;;;;;;9.52;8.32;;;;;20.80;95651.00;;;;8301316;28;20201;-69
2023/08/30 08:25:32;;;;;;;9.15;8.25;;;;;21.20;95654.00;;;;8307637;28;20285;-69
2023/08/30 08:29:41;;;;;;;8.68;7.78;;;;;21.50;95655.00;;;;8308233;28;20947;-69
2023/08/30 08:33:52;;;;;;;7.97;7.15;;;;;21.50;95657.00;;;;8303859;28;20202;-70
2023/08/30 08:37:56;;;;;;;6.47;5.88;;;;;21.70;95666.00;;;;8310418;28;20242;-70
2023/08/30 08:42:03;;;;;;;7.68;6.88;;;;;21.80;95660.00;;;;8313995;28;20232;-70
2023/08/30 08:46:12;;;;;;;8.30;6.85;;;;;21.90;95658.00;;;;8306005;28;20319;-70
2023/08/30 08:50:20;;;;;;;7.63;6.72;;;;;22.00;95660.00;;;;8304521;28;20236;-71
2023/08/30 08:54:24;;;;;;;6.82;6.13;;;;;22.00;95658.00;;;;8307740;28;20224;-70
2023/08/30 08:58:28;;;;;;;7.18;5.85;;;;;21.90;95653.00;;;;8296809;28;20201;-70
2023/08/30 09:02:33;;;;;;;10.52;5.32;;;;;21.90;95663.00;;;;8304292;28;20236;-71
2023/08/30 09:06:39;;;;;;;6.03;5.20;;;;;22.00;95649.00;;;;8305799;28;20783;-71
2023/08/30 09:10:43;;;;;;;5.47;4.97;;;;;21.90;95655.00;;;;8308922;28;20202;-71
2023/08/30 09:14:55;;;;;;;4.70;4.30;;;;;21.70;95653.00;;;;8305074;28;20275;-69
2023/08/30 09:18:59;;;;;;;5.28;4.78;;;;;22.70;95651.00;;;;8305338;28;20640;-70
2023/08/30 09:23:21;;;;;;;5.93;5.10;;;;;23.10;95651.00;;;;8303002;28;20241;-70
2023/08/30 09:27:33;;;;;;;5.07;4.55;;;;;23.60;95647.00;;;;8298398;28;20217;-71
2023/08/30 09:31:40;;;;;;;5.30;4.90;;;;;23.70;95652.00;;;;8308996;28;20197;-71
2023/08/30 09:35:50;;;;;;;5.20;4.20;;;;;23.20;95650.00;;;;8308222;28;20678;-72
2023/08/30 09:39:57;;;;;;;4.60;4.25;;;;;23.40;95654.00;;;;8304672;28;20252;-72
2023/08/30 09:44:01;;;;;;;4.38;3.88;;;;;24.10;95652.00;;;;8303869;28;20293;-72
2023/08/30 09:48:17;;;;;;;6.70;3.55;;;;;23.80;95652.00;;;;8306777;28;20202;-72
2023/08/30 09:52:24;;;;;;;4.30;3.35;;;;;22.90;95648.00;;;;8306290;28;20292;-72
2023/08/30 09:56:29;;;;;;;4.20;3.33;;;;;22.00;95643.00;;;;8306221;28;20352;-74
2023/08/30 10:00:33;;;;;;;4.55;3.90;;;;;22.20;95637.00;;;;8305836;28;20193;-72
2023/08/30 10:04:39;;;;;;;5.47;3.30;;;;;23.30;95639.00;;;;8302917;28;20224;-72
2023/08/30 10:08:46;;;;;;;2.78;2.58;;;;;24.30;95636.00;;;;8304309;28;20201;-73
2023/08/30 10:12:52;;;;;;;3.20;2.90;;;;;24.90;95632.00;;;;8305790;28;20205;-71
2023/08/30 10:17:15;;;;;;;6.65;5.80;;;;;24.50;95631.00;;;;8302886;28;21098;-72
2023/08/30 10:21:20;;;;;;;3.05;2.83;;;;;24.70;95628.00;;;;8305635;28;20212;-72
2023/08/30 10:25:27;;;;;;;3.50;2.78;;;;;25.10;95621.00;;;;8302693;28;20205;-72
2023/08/30 10:29:36;;;;;;;4.22;3.83;;;;;24.60;95623.00;;;;8301187;28;20237;-72
2023/08/30 10:33:49;;;;;;;3.20;2.90;;;;;24.60;95626.00;;;;8305268;28;20205;-72
2023/08/30 10:37:55;;;;;;;4.75;3.03;;;;;24.30;95626.00;;;;8304394;28;20602;-74
2023/08/30 10:42:01;;;;;;;3.42;3.15;;;;;24.20;95625.00;;;;8300573;28;20674;-73
2023/08/30 10:46:11;;;;;;;4.72;3.05;;;;;24.20;95626.00;;;;8299660;28;20217;-73
2023/08/30 10:50:18;;;;;;;2.70;2.50;;;;;24.40;95628.00;;;;8297121;28;20193;-72
2023/08/30 10:54:23;;;;;;;3.30;3.00;;;;;23.90;95626.00;;;;8307460;28;20199;-71
2023/08/30 10:58:28;;;;;;;2.80;2.58;;;;;23.40;95631.00;;;;8297636;28;20548;-72
2023/08/30 11:02:36;;;;;;;3.95;2.55;;;;;23.10;95635.00;;;;8301668;28;20737;-71
2023/08/30 11:06:40;;;;;;;3.55;3.25;;;;;22.70;95624.00;;;;8302020;28;20596;-72
2023/08/30 11:10:45;;;;;;;7.07;3.47;;;;;22.60;95628.00;;;;8304337;28;20210;-72
2023/08/30 11:14:49;;;;;;;5.78;4.43;;;;;22.30;95632.00;;;;8297057;28;20193;-72
2023/08/30 11:18:53;;;;;;;5.93;5.28;;;;;22.00;95622.00;;;;8297464;28;20209;-74
2023/08/30 11:22:57;;;;;;;7.00;5.57;;;;;21.80;95620.00;;;;8298590;28;20205;-72
2023/08/30 11:27:05;;;;;;;5.95;5.28;;;;;21.70;95620.00;;;;8302695;28;20210;-71
2023/08/30 11:31:11;;;;;;;9.23;5.45;;;;;21.80;95629.00;;;;8297405;28;20213;-72
2023/08/30 11:35:18;;;;;;;5.00;4.60;;;;;21.80;95621.00;;;;8293657;28;20256;-68
2023/08/30 11:39:25;;;;;;;6.85;5.60;;;;;21.60;95625.00;;;;8300180;28;20216;-69
2023/08/30 11:43:38;;;;;;;5.90;5.40;;;;;21.60;95625.00;;;;8297937;28;20229;-68
2023/08/30 11:47:44;;;;;;;8.52;5.60;;;;;21.70;95620.00;;;;8305768;28;20197;-69
2023/08/30 11:51:49;;;;;;;5.57;5.07;;;;;21.70;95618.00;;;;8304770;28;20202;-67
2023/08/30 11:55:54;;;;;;;5.90;5.15;;;;;22.00;95619.00;;;;8307082;28;20226;-68
2023/08/30 12:00:08;;;;;;;6.95;5.70;;;;;22.30;95623.00;;;;8310418;28;20645;-69
2023/08/30 12:04:12;;;;;;;7.03;5.85;;;;;22.40;95623.00;;;;8307570;28;20229;-68
2023/08/30 12:08:24;;;;;;;5.28;4.78;;;;;22.50;95621.00;;;;8310949;28;20320;-68
2023/08/30 12:12:30;;;;;;;5.07;4.68;;;;;22.60;95615.00;;;;8308809;28;20201;-68
2023/08/30 12:16:35;;;;;;;5.55;5.00;;;;;22.70;95613.00;;;;8307692;28;20225;-69
2023/08/30 12:20:39;;;;;;;7.20;5.30;;;;;22.80;95611.00;;;;8306087;28;20256;-68
2023/08/30 12:24:47;;;;;;;8.48;5.55;;;;;22.70;95617.00;;;;8305860;28;20206;-69
2023/08/30 12:28:53;;;;;;;7.10;4.57;;;;;22.80;95616.00;;;;8301854;28;20255;-67
2023/08/30 12:33:05;;;;;;;4.75;4.28;;;;;23.00;95608.00;;;;8302465;28;20203;-68
2023/08/30 12:37:08;;;;;;;4.25;3.90;;;;;23.00;95602.00;;;;8307578;28;20237;-68
2023/08/30 12:41:12;;;;;;;6.22;3.83;;;;;23.10;95607.00;;;;8308989;28;20536;-68
2023/08/30 12:45:17;;;;;;;3.90;3.58;;;;;23.10;95607.00;;;;8307500;28;20205;-68
2023/08/30 12:49:28;;;;;;;3.90;3.60;;;;;23.30;95607.00;;;;8304153;28;20205;-69
2023/08/30 12:53:31;;;;;;;4.07;3.60;;;;;23.30;95610.00;;;;8308177;28;20205;-68
2023/08/30 12:57:38;;;;;;;3.50;3.28;;;;;23.40;95607.00;;;;8311054;28;20316;-68
2023/08/30 13:01:41;;;;;;;3.40;2.85;;;;;23.60;95609.00;;;;8305376;28;21003;-70
2023/08/30 13:05:44;;;;;;;3.58;3.30;;;;;23.80;95606.00;;;;8306262;28;20202;-69
2023/08/30 13:09:47;;;;;;;3.55;3.08;;;;;23.90;95601.00;;;;8306252;28;20236;-71
2023/08/30 13:13:54;;;;;;;3.20;2.95;;;;;24.00;95601.00;;;;8308363;28;20198;-71
2023/08/30 13:17:57;;;;;;;3.03;2.83;;;;;24.30;95595.00;;;;8306831;28;20231;-71
2023/08/30 13:22:04;;;;;;;3.53;3.13;;;;;24.60;95592.00;;;;8300597;28;20647;-70
2023/08/30 13:26:10;;;;;;;4.18;3.55;;;;;24.50;95592.00;;;;8303892;28;20205;-71
2023/08/30 13:30:15;;;;;;;3.95;3.53;;;;;24.10;95595.00;;;;8314573;28;20686;-71
2023/08/30 13:34:23;;;;;;;4.38;3.38;;;;;23.70;95588.00;;;;8305228;28;20197;-71
2023/08/30 13:38:31;;;;;;;3.75;3.45;;;;;23.60;95594.00;;;;8291185;28;20225;-72
2023/08/30 13:42:38;;;;;;;3.63;3.00;;;;;23.40;95592.00;;;;8308332;28;20195;-71
2023/08/30 13:46:47;;;;;;;3.60;3.38;;;;;23.20;95596.00;;;;8308086;28;20252;-71
2023/08/30 13:50:52;;;;;;;3.22;3.03;;;;;22.90;95591.00;;;;8304313;28;20316;-71
2023/08/30 13:54:57;;;;;;;2.70;2.50;;;;;22.80;95592.00;;;;8309637;28;20197;-71
2023/08/30 13:59:00;;;;;;;2.90;2.70;;;;;22.70;95591.00;;;;8309424;28;20225;-71
2023/08/30 14:03:06;;;;;;;3.08;2.83;;;;;22.50;95605.00;;;;8313348;28;20482;-71
2023/08/30 14:07:12;;;;;;;2.70;2.47;;;;;22.20;95604.00;;;;8309180;28;20198;-71
2023/08/30 14:11:20;;;;;;;2.70;2.50;;;;;21.90;95595.00;;;;8296218;28;20741;-71
2023/08/30 14:15:23;;;;;;;3.17;2.90;;;;;21.50;95601.00;;;;8301094;28;20201;-71
2023/08/30 14:19:27;;;;;;;3.03;2.83;;;;;21.30;95599.00;;;;8311498;28;20315;-72
2023/08/30 14:23:31;;;;;;;4.10;3.72;;;;;21.00;95599.00;;;;8304068;28;20799;-71
2023/08/30 14:27:34;;;;;;;3.67;3.38;;;;;21.00;95590.00;;;;8299557;28;20229;-71
2023/08/30 14:31:40;;;;;;;3.33;3.08;;;;;21.40;95592.00;;;;8303419;28;20205;-71
2023/08/30 14:35:52;;;;;;;5.10;3.92;;;;;21.60;95589.00;;;;8306461;28;20198;-71
2023/08/30 14:39:56;;;;;;;7.35;4.13;;;;;21.70;95590.00;;;;8304669;28;20236;-72
2023/08/30 14:44:02;;;;;;;3.83;3.53;;;;;21.60;95590.00;;;;8308230;28;20734;-72
2023/08/30 14:48:08;;;;;;;4.68;3.58;;;;;21.60;95586.00;;;;8305568;28;20201;-72
2023/08/30 14:52:13;;;;;;;4.18;3.72;;;;;21.60;95585.00;;;;8309877;28;20224;-72
2023/08/30 14:56:17;;;;;;;3.58;3.28;;;;;21.50;95592.00;;;;8308392;28;20239;-72
2023/08/30 15:00:22;;;;;;;4.60;3.55;;;;;21.50;95594.00;;;;8305222;28;20284;-72
2023/08/30 15:04:26;;;;;;;3.60;3.30;;;;;21.50;95588.00;;;;8300457;28;20243;-72
2023/08/30 15:08:36;;;;;;;4.05;3.65;;;;;21.50;95587.00;;;;8300606;28;20664;-72
2023/08/30 15:12:39;;;;;;;5.97;3.47;;;;;21.20;95586.00;;;;8299410;28;21009;-72
2023/08/30 15:16:42;;;;;;;5.10;3.55;;;;;21.00;95591.00;;;;8305275;28;20221;-72
2023/08/30 15:20:47;;;;;;;3.28;3.08;;;;;20.90;95589.00;;;;8299293;28;20579;-72
2023/08/30 15:24:58;;;;;;;3.72;3.53;;;;;20.80;95596.00;;;;8303065;28;20707;-72
2023/08/30 15:29:02;;;;;;;4.18;3.53;;;;;20.80;95591.00;;;;8316349;28;20201;-72
2023/08/30 15:33:08;;;;;;;5.07;3.65;;;;;20.90;95600.00;;;;8303341;28;20207;-72
2023/08/30 15:37:13;;;;;;;5.85;3.92;;;;;20.80;95607.00;;;;8310125;28;20228;-72
2023/08/30 15:41:21;;;;;;;4.43;4.03;;;;;20.70;95600.00;;;;8307748;28;20698;-72
2023/08/30 15:45:24;;;;;;;4.30;3.90;;;;;20.70;95593.00;;;;8309194;28;20255;-72
2023/08/30 15:49:29;;;;;;;6.45;4.70;;;;;20.60;95594.00;;;;8310392;28;20206;-71
2023/08/30 15:53:32;;;;;;;3.60;3.30;;;;;20.50;95591.00;;;;8309533;28;20211;-72
2023/08/30 15:57:36;;;;;;;3.92;3.58;;;;;20.40;95595.00;;;;8305871;28;20226;-72
2023/08/30 16:01:42;;;;;;;3.75;3.47;;;;;20.40;95595.00;;;;8312016;28;20698;-71
2023/08/30 16:05:48;;;;;;;3.92;3.63;;;;;20.30;95596.00;;;;8308109;28;20236;-72
2023/08/30 16:09:52;;;;;;;3.72;3.40;;;;;20.20;95598.00;;;;8306300;28;20428;-72
2023/08/30 16:13:57;;;;;;;4.00;3.42;;;;;20.10;95597.00;;;;8308351;28;20597;-72
2023/08/30 16:18:00;;;;;;;3.85;3.55;;;;;20.00;95590.00;;;;8302722;28;20218;-71
2023/08/30 16:22:06;;;;;;;5.68;3.92;;;;;19.90;95592.00;;;;8310708;28;20645;-71
2023/08/30 16:26:13;;;;;;;8.05;3.88;;;;;19.80;95596.00;;;;8317877;28;20209;-72
2023/08/30 16:30:17;;;;;;;4.28;3.92;;;;;19.80;95598.00;;;;8316966;28;20618;-71
2023/08/30 16:34:24;;;;;;;7.30;4.50;;;;;19.70;95597.00;;;;8308069;28;20193;-72
2023/08/30 16:38:27;;;;;;;4.90;4.22;;;;;19.50;95598.00;;;;8308484;28;20224;-71
2023/08/30 16:42:31;;;;;;;6.18;4.50;;;;;19.30;95591.00;;;;8314790;28;20300;-71
2023/08/30 16:46:36;;;;;;;5.28;4.25;;;;;19.20;95603.00;;;;8304810;28;20753;-71
2023/08/30 16:50:39;;;;;;;6.72;4.47;;;;;19.10;95598.00;;;;8297690;28;20253;-71
2023/08/30 16:54:43;;;;;;;4.95;4.20;;;;;19.00;95593.00;;;;8303436;28;20197;-71
2023/08/30 16:58:48;;;;;;;5.35;4.20;;;;;19.00;95600.00;;;;8306799;28;20329;-72
2023/08/30 17:02:53;;;;;;;5.07;4.00;;;;;19.10;95604.00;;;;8305459;28;20222;-71
2023/08/30 17:07:01;;;;;;;4.40;3.75;;;;;19.10;95605.00;;;;8301851;28;20213;-71
2023/08/30 17:11:04;;;;;;;3.78;3.47;;;;;19.10;95612.00;;;;8302794;28;20300;-71
2023/08/30 17:15:09;;;;;;;4.72;4.15;;;;;19.10;95605.00;;;;8310218;28;20252;-71
2023/08/30 17:19:14;;;;;;;4.20;3.80;;;;;19.10;95596.00;;;;8304901;28;20271;-72
2023/08/30 17:23:19;;;;;;;3.88;3.50;;;;;19.10;95597.00;;;;8302409;28;20296;-71
2023/08/30 17:27:22;;;;;;;4.50;3.53;;;;;19.10;95594.00;;;;8304144;28;20288;-71
2023/08/30 17:31:26;;;;;;;4.15;3.67;;;;;19.00;95598.00;;;;8304992;28;20854;-72
2023/08/30 17:35:33;;;;;;;3.75;3.45;;;;;18.90;95605.00;;;;8301681;28;20643;-71
2023/08/30 17:39:41;;;;;;;4.05;3.63;;;;;18.80;95604.00;;;;8308854;28;20629;-71
2023/08/30 17:43:44;;;;;;;3.75;3.40;;;;;18.70;95608.00;;;;8309336;28;20867;-72
2023/08/30 17:47:48;;;;;;;6.95;3.10;;;;;18.60;95605.00;;;;8308230;28;20750;-71
2023/08/30 17:51:53;;;;;;;4.15;3.75;;;;;18.40;95615.00;;;;8301934;28;20292;-72
2023/08/30 17:55:57;;;;;;;5.90;3.65;;;;;18.20;95613.00;;;;8305353;28;20578;-72
2023/08/30 18:00:00;;;;;;;6.00;3.30;;;;;18.10;95619.00;;;;8308173;28;20312;-72
2023/08/30 18:04:04;;;;;;;3.75;3.45;;;;;18.00;95614.00;;;;8305644;28;20241;-72
2023/08/30 18:08:09;;;;;;;3.72;3.40;;;;;18.00;95615.00;;;;8305420;28;20764;-72
2023/08/30 18:12:12;;;;;;;5.78;3.88;;;;;17.90;95624.00;;;;8310457;28;20190;-71
2023/08/30 18:16:20;;;;;;;6.45;3.50;;;;;17.90;95624.00;;;;8299127;28;20260;-68
2023/08/30 18:20:24;;;;;;;6.93;4.00;;;;;17.80;95619.00;;;;8302777;28;20260;-72
2023/08/30 18:24:28;;;;;;;3.90;3.58;;;;;17.70;95629.00;;;;8310246;28;20284;-71
2023/08/30 18:28:31;;;;;;;5.38;3.83;;;;;17.50;95624.00;;;;8307157;28;20221;-71
2023/08/30 18:32:35;;;;;;;4.03;3.72;;;;;17.40;95628.00;;;;8301791;28;20198;-72
2023/08/30 18:36:40;;;;;;;4.88;3.80;;;;;17.20;95630.00;;;;8300217;28;20228;-70
2023/08/30 18:40:46;;;;;;;5.97;3.80;;;;;17.00;95650.00;;;;8309312;28;20229;-71
2023/08/30 18:45:00;;;;;;;4.20;3.80;;;;;16.80;95645.00;;;;8304499;28;20214;-72
2023/08/30 18:49:08;;;;;;;4.30;3.60;;;;;16.60;95654.00;;;;8306065;28;20206;-70
2023/08/30 18:53:15;;;;;;;6.88;3.90;;;;;16.50;95658.00;;;;8298491;28;20292;-71
2023/08/30 18:57:20;;;;;;;4.35;3.90;;;;;16.30;95667.00;;;;8304581;28;20292;-71
2023/08/30 19:01:23;;;;;;;4.60;4.07;;;;;16.20;95663.00;;;;8307227;28;20233;-71
2023/08/30 19:05:26;;;;;;;6.07;4.07;;;;;16.10;95663.00;;;;8304677;28;20715;-71
2023/08/30 19:09:34;;;;;;;6.30;4.40;;;;;16.00;95654.00;;;;8309297;28;20212;-70
2023/08/30 19:13:39;;;;;;;6.72;4.07;;;;;15.90;95660.00;;;;8308269;28;20208;-70
2023/08/30 19:17:45;;;;;;;7.93;4.30;;;;;15.80;95666.00;;;;8310427;28;20284;-70
2023/08/30 19:21:48;;;;;;;5.30;4.03;;;;;15.70;95663.00;;;;8307430;28;20197;-70
2023/08/30 19:25:52;;;;;;;5.65;4.38;;;;;15.60;95667.00;;;;8306054;28;20201;-71
2023/08/30 19:30:00;;;;;;;5.03;4.57;;;;;15.60;95667.00;;;;8302832;28;20197;-74
2023/08/30 19:34:05;;;;;;;4.80;4.38;;;;;15.70;95673.00;;;;8300651;28;20212;-70
2023/08/30 19:38:12;;;;;;;5.65;4.22;;;;;15.80;95675.00;;;;8309839;28;20699;-71
2023/08/30 19:42:20;;;;;;;5.18;4.68;;;;;15.80;95682.00;;;;8306147;28;20229;-70
2023/08/30 19:46:25;;;;;;;5.57;4.25;;;;;15.80;95674.00;;;;8309527;28;20285;-71
2023/08/30 19:50:29;;;;;;;6.00;4.60;;;;;15.90;95679.00;;;;8309664;28;20248;-71
2023/08/30 19:54:32;;;;;;;5.20;4.70;;;;;16.00;95673.00;;;;8307302;28;20742;-70
2023/08/30 19:58:39;;;;;;;6.20;5.03;;;;;16.00;95667.00;;;;8308597;28;20269;-71
2023/08/30 20:02:43;;;;;;;8.63;4.82;;;;;16.00;95670.00;;;;8301248;28;20333;-71
2023/08/30 20:06:47;;;;;;;6.35;4.40;;;;;16.10;95671.00;;;;8297514;28;20198;-71
2023/08/30 20:10:51;;;;;;;6.72;4.63;;;;;16.10;95671.00;;;;8302636;28;20649;-70
2023/08/30 20:14:56;;;;;;;4.43;4.03;;;;;16.10;95677.00;;;;8305386;28;20280;-71
2023/08/30 20:19:01;;;;;;;5.22;4.72;;;;;16.20;95668.00;;;;8317679;28;20225;-71
2023/08/30 20:23:11;;;;;;;4.78;4.25;;;;;16.20;95661.00;;;;8316380;28;20292;-71
2023/08/30 20:27:15;;;;;;;4.00;3.70;;;;;16.10;95663.00;;;;8311147;28;20227;-71
2023/08/30 20:31:21;;;;;;;4.05;3.65;;;;;16.20;95662.00;;;;8308210;28;20202;-71